首页
METAR-TAF:

METAR-TAF

机场 :

Lumberton Municipal Airport

兰伯顿, 北卡罗来纳州, 美国

纬度: 34-36-26N, 经度: 079-03-36W, 海拔: 38米

METAR: 丢失

时间: 16:42 (20:42 UTC)

预报

该预报发布于3小时和22分钟前的17:20 UTC
预报有效从06日的 18点(UTC)到 07日的 18点(UTC)
风速8节,风向西
能見度: 10公里
多云层高于9000英尺
从 07日的 0000点(UTC)
风速5节,风向西转西南
能見度: 10公里
多云层高于20000英尺
从 07日的 1100点(UTC)
风速7节,风向西
能見度: 10公里
散云层高于10000英尺
从 07日的 1500点(UTC)
风速6节,风向西转西北
能見度: 10公里
散云层高于7000英尺

TAF: KLBT 061720Z 0618/0718 27008KT P6SM BKN090 FM070000 24005KT P6SM BKN200 FM071100 26007KT P6SM SCT100 FM071500 29006KT P6SM SCT070 AMD NOT SKED

超过4000个机场的气象观测和天气预报(METAR&TAF报告)。

可查询的气象台以黄色和红色小点在地图上表示。

将鼠标移到小点上方,可查看气象台名称。

然后点击查看天气观测和预报。

如需切换地图:点击带黑十字的绿色按钮放大地图;点击带横线的绿色按钮缩小地图;或者点击绿色箭头查看邻近地区的地图。


METAR-TAF: